Time;durP1;ratioP1;P1;durP2;ratioP2;P2;SDS_P1;SDS_P2;PMS_P1;PMS_P2;Temp;Humidity;BMP_temperature;BMP_pressure;BME280_temperature;BME280_humidity;BME280_pressure;Samples;Min_cycle;Max_cycle;Signal;HPM_P1;HPM_P2
2022/10/28 00:01:15;;;;;;;12.27;6.88;;;;;;;13.80;56.79;95876.34;4178954;28;20136;-57
2022/10/28 00:03:17;;;;;;;10.65;6.45;;;;;;;13.85;56.63;95871.47;4176742;28;20056;-59
2022/10/28 00:05:19;;;;;;;12.27;6.53;;;;;;;13.79;56.82;95876.47;4178001;28;20037;-57
2022/10/28 00:07:21;;;;;;;11.60;6.55;;;;;;;13.66;56.99;95879.50;4177102;28;20049;-56
2022/10/28 00:09:23;;;;;;;10.95;6.15;;;;;;;13.39;57.45;95880.38;4176971;28;20415;-57
2022/10/28 00:11:27;;;;;;;10.60;6.35;;;;;;;13.29;58.22;95877.78;4178385;28;20088;-58
2022/10/28 00:13:29;;;;;;;11.18;5.85;;;;;;;13.32;58.13;95874.88;4173248;28;20049;-57
2022/10/28 00:15:33;;;;;;;10.63;6.53;;;;;;;13.34;58.17;95867.66;4172894;28;20072;-58
2022/10/28 00:17:35;;;;;;;15.88;6.00;;;;;;;13.34;58.23;95872.91;4169385;28;20466;-59
2022/10/28 00:19:36;;;;;;;12.23;6.75;;;;;;;13.35;58.29;95864.03;4171392;28;20509;-58
2022/10/28 00:21:40;;;;;;;10.20;5.90;;;;;;;13.34;58.05;95865.03;4173463;28;20136;-58
2022/10/28 00:23:42;;;;;;;8.73;5.60;;;;;;;13.37;58.23;95864.72;4180888;28;20076;-63
2022/10/28 00:25:43;;;;;;;10.13;5.57;;;;;;;13.42;57.64;95862.47;4167928;28;20493;-63
2022/10/28 00:27:45;;;;;;;9.65;5.70;;;;;;;13.48;57.42;95863.69;4167111;28;20049;-63
2022/10/28 00:29:47;;;;;;;7.72;5.30;;;;;;;13.52;57.51;95867.66;4174283;28;20081;-64
2022/10/28 00:31:49;;;;;;;8.73;5.85;;;;;;;13.56;57.28;95871.66;4173067;28;20131;-64
2022/10/28 00:33:51;;;;;;;13.52;6.35;;;;;;;13.53;57.54;95864.06;4180339;28;20521;-64
2022/10/28 00:35:53;;;;;;;8.25;6.07;;;;;;;13.51;57.73;95866.03;4167430;28;20386;-64
2022/10/28 00:37:55;;;;;;;9.18;6.32;;;;;;;13.52;57.38;95868.50;4180495;28;20136;-61
2022/10/28 00:39:56;;;;;;;8.38;5.88;;;;;;;13.51;57.52;95863.41;4180538;28;20072;-62
2022/10/28 00:42:02;;;;;;;10.30;6.82;;;;;;;13.44;57.95;95860.53;4180037;28;20398;-62
2022/10/28 00:44:42;;;;;;;11.68;6.55;;;;;;;13.38;58.09;95860.28;4175149;28;20048;-62
2022/10/28 00:46:46;;;;;;;10.57;6.88;;;;;;;13.30;58.51;95861.84;4176609;28;20575;-62
2022/10/28 00:48:52;;;;;;;12.15;6.95;;;;;;;13.16;58.77;95862.28;4179139;28;20076;-63
2022/10/28 00:50:54;;;;;;;12.00;6.32;;;;;;;13.07;59.26;95858.75;4171141;28;20548;-64
2022/10/28 00:53:08;;;;;;;9.90;6.22;;;;;;;13.00;58.79;95862.13;4163885;28;20052;-63
2022/10/28 00:55:11;;;;;;;10.65;6.18;;;;;;;12.93;59.31;95863.66;4176510;28;20052;-62
2022/10/28 00:57:16;;;;;;;8.77;6.22;;;;;;;12.88;59.26;95864.94;4169255;28;20040;-62
2022/10/28 00:59:23;;;;;;;11.30;6.63;;;;;;;12.92;59.24;95862.81;4163737;28;20053;-60
2022/10/28 01:01:25;;;;;;;11.13;6.63;;;;;;;12.95;59.36;95864.34;4175259;28;20053;-62
2022/10/28 01:03:27;;;;;;;10.50;7.07;;;;;;;13.01;59.29;95866.38;4175565;28;20072;-61
2022/10/28 01:05:32;;;;;;;11.55;6.70;;;;;;;13.00;59.15;95857.69;4163645;28;20152;-63
2022/10/28 01:07:33;;;;;;;11.77;6.28;;;;;;;13.06;59.01;95862.34;4173848;28;20417;-62
2022/10/28 01:09:36;;;;;;;10.45;6.35;;;;;;;13.08;58.93;95857.78;4175770;28;20421;-63
2022/10/28 01:12:05;;;;;;;9.90;5.97;;;;;;;13.00;58.47;95854.22;4164542;28;20136;-62
2022/10/28 01:14:37;;;;;;;12.25;6.82;;;;;;;12.97;59.11;95860.59;4177010;28;20053;-62
2022/10/28 01:16:57;;;;;;;9.73;6.57;;;;;;;13.01;59.10;95859.31;4164279;28;20045;-61
2022/10/28 01:19:33;;;;;;;11.32;6.28;;;;;;;12.98;58.91;95859.63;4176655;28;20084;-62
2022/10/28 01:21:58;;;;;;;11.23;6.38;;;;;;;12.98;59.00;95857.00;4190251;28;20083;-61
2022/10/28 01:24:15;;;;;;;10.82;6.18;;;;;;;12.93;59.45;95859.25;4178555;28;20469;-63
2022/10/28 01:26:36;;;;;;;9.10;5.63;;;;;;;12.94;59.42;95855.63;4179471;28;20049;-63
2022/10/28 01:28:56;;;;;;;14.13;11.25;;;;;;;12.89;59.10;95857.88;4179798;28;20045;-62
2022/10/28 01:30:57;;;;;;;23.70;14.52;;;;;;;12.78;59.00;95858.06;4165260;28;20053;-64
2022/10/28 01:33:07;;;;;;;24.35;19.27;;;;;;;12.62;59.45;95856.03;4155302;28;20049;-61
2022/10/28 01:35:09;;;;;;;22.27;16.15;;;;;;;12.55;59.72;95849.69;4169593;28;20141;-62
2022/10/28 01:37:15;;;;;;;14.40;7.60;;;;;;;12.61;60.01;95857.00;4167413;28;20145;-62
2022/10/28 01:39:33;;;;;;;15.02;8.35;;;;;;;12.64;59.73;95860.16;4177199;28;20538;-60
2022/10/28 01:41:52;;;;;;;12.73;6.05;;;;;;;12.72;59.55;95861.25;4194750;28;20586;-63
2022/10/28 01:44:07;;;;;;;8.55;6.20;;;;;;;12.76;59.72;95863.44;4173292;28;20098;-63
2022/10/28 01:46:22;;;;;;;10.07;6.38;;;;;;;12.78;59.36;95861.50;4173525;28;20044;-63
2022/10/28 01:48:47;;;;;;;10.82;6.50;;;;;;;12.82;59.52;95860.25;4165075;28;20055;-62
2022/10/28 01:51:01;;;;;;;10.77;6.90;;;;;;;12.53;60.01;95862.97;4163703;28;20471;-63
2022/10/28 01:53:08;;;;;;;9.75;5.75;;;;;;;12.35;60.63;95862.06;4177830;28;20777;-64
2022/10/28 01:55:15;;;;;;;10.77;6.13;;;;;;;12.25;61.00;95867.31;4177905;28;20132;-63
2022/10/28 01:57:17;;;;;;;12.68;5.75;;;;;;;12.18;60.90;95869.69;4177810;28;20531;-62
2022/10/28 01:59:22;;;;;;;10.55;6.00;;;;;;;11.93;61.32;95870.25;4177962;28;20048;-62
2022/10/28 02:01:25;;;;;;;11.52;5.75;;;;;;;11.79;61.92;95876.72;4176481;28;20102;-58
2022/10/28 02:03:27;;;;;;;9.32;5.57;;;;;;;11.70;61.86;95873.09;4179572;28;20052;-58
2022/10/28 02:05:46;;;;;;;13.60;6.40;;;;;;;11.79;62.39;95860.97;4177624;28;20078;-57
2022/10/28 02:07:50;;;;;;;10.10;5.93;;;;;;;11.77;61.88;95866.34;4179157;28;20173;-57
2022/10/28 02:10:04;;;;;;;;;;;;;;;11.76;62.32;95869.09;4161952;28;20069;-58
2022/10/28 02:12:23;;;;;;;9.05;5.65;;;;;;;11.82;62.36;95869.38;4162538;28;20405;-59
2022/10/28 02:14:34;;;;;;;8.18;5.70;;;;;;;11.88;62.19;95868.84;4176221;28;20147;-58
2022/10/28 02:16:41;;;;;;;9.85;6.10;;;;;;;11.93;61.92;95862.38;4169871;28;20505;-58
2022/10/28 02:19:00;;;;;;;12.65;6.18;;;;;;;11.90;62.06;95860.03;4173647;28;20076;-56
2022/10/28 02:21:05;;;;;;;8.88;5.78;;;;;;;11.91;61.84;95870.38;4163601;28;20085;-58
2022/10/28 02:23:26;;;;;;;11.48;6.07;;;;;;;11.91;62.04;95864.31;4172617;28;20113;-57
2022/10/28 02:25:35;;;;;;;7.47;5.65;;;;;;;11.96;61.83;95867.31;4178833;28;20052;-57
2022/10/28 02:28:09;;;;;;;10.13;6.10;;;;;;;12.00;61.55;95866.09;4177682;28;20136;-56
2022/10/28 02:30:27;;;;;;;8.57;5.70;;;;;;;11.94;61.45;95858.75;4172397;28;20475;-59
2022/10/28 02:32:32;;;;;;;9.52;5.90;;;;;;;11.91;61.61;95864.31;4167701;28;20049;-56
2022/10/28 02:34:39;;;;;;;13.98;6.20;;;;;;;11.77;61.87;95876.84;4193772;28;20086;-59
2022/10/28 02:36:44;;;;;;;10.55;6.05;;;;;;;11.56;62.61;95871.72;4176666;28;20128;-59
2022/10/28 02:38:53;;;;;;;12.18;5.90;;;;;;;11.32;63.28;95874.72;4178496;28;20127;-59
2022/10/28 02:40:59;;;;;;;14.40;6.90;;;;;;;11.28;64.02;95876.75;4173565;28;20132;-54
2022/10/28 02:43:03;;;;;;;11.63;6.55;;;;;;;11.35;63.71;95884.09;4173672;28;20592;-57
2022/10/28 02:45:13;;;;;;;10.50;6.88;;;;;;;11.43;63.40;95879.84;4184807;28;20167;-56
2022/10/28 02:47:18;;;;;;;10.80;6.40;;;;;;;11.44;63.47;95889.38;4166183;28;20083;-58
2022/10/28 02:49:21;;;;;;;14.63;7.30;;;;;;;11.58;63.03;95884.69;4177343;28;20350;-58
2022/10/28 02:51:27;;;;;;;12.20;6.85;;;;;;;11.71;62.82;95881.81;4178192;28;20478;-58
2022/10/28 02:53:32;;;;;;;10.23;6.40;;;;;;;11.81;62.35;95883.47;4174629;28;20088;-57
2022/10/28 02:55:39;;;;;;;11.85;6.35;;;;;;;11.86;62.12;95878.63;4166889;28;20119;-58
2022/10/28 02:57:43;;;;;;;17.63;7.07;;;;;;;11.92;62.30;95872.03;4167335;28;20049;-56
2022/10/28 02:59:59;;;;;;;14.02;6.78;;;;;;;11.99;61.87;95878.38;4175123;28;20136;-57
2022/10/28 03:02:01;;;;;;;13.05;6.30;;;;;;;12.01;61.81;95875.63;4176867;28;20041;-57
2022/10/28 03:04:03;;;;;;;16.73;6.97;;;;;;;12.05;61.37;95879.66;4178462;28;20057;-59
2022/10/28 03:06:05;;;;;;;11.15;7.18;;;;;;;12.05;61.44;95877.03;4177714;28;20057;-59
2022/10/28 03:08:07;;;;;;;11.93;6.93;;;;;;;12.06;61.27;95876.84;4165750;28;20501;-56
2022/10/28 03:10:09;;;;;;;14.32;7.13;;;;;;;12.09;61.12;95873.16;4177121;28;20124;-58
2022/10/28 03:12:10;;;;;;;14.90;6.95;;;;;;;12.13;61.00;95871.91;4178202;28;20135;-57
2022/10/28 03:14:12;;;;;;;11.30;5.80;;;;;;;12.13;61.09;95877.16;4164990;28;20476;-56
2022/10/28 03:16:16;;;;;;;14.32;6.00;;;;;;;12.11;61.03;95870.34;4162304;28;20462;-57
2022/10/28 03:18:17;;;;;;;9.60;6.22;;;;;;;12.11;61.09;95868.59;4169465;28;20131;-57
2022/10/28 03:20:19;;;;;;;13.50;6.03;;;;;;;12.13;60.98;95871.91;4178003;28;20084;-59
2022/10/28 03:22:21;;;;;;;14.85;7.07;;;;;;;12.06;61.34;95874.22;4171286;28;20100;-57
2022/10/28 03:24:22;;;;;;;13.95;7.47;;;;;;;11.98;61.56;95870.63;4171487;28;20094;-59
2022/10/28 03:26:24;;;;;;;15.88;7.32;;;;;;;11.86;61.53;95878.63;4177851;28;20036;-56
2022/10/28 03:28:26;;;;;;;10.75;6.65;;;;;;;11.69;61.72;95879.31;4167265;28;20164;-58
2022/10/28 03:30:27;;;;;;;10.25;7.63;;;;;;;11.28;62.92;95879.38;4176029;28;20155;-54
2022/10/28 03:32:29;;;;;;;12.15;7.57;;;;;;;10.92;64.36;95872.91;4178701;28;20124;-55
2022/10/28 03:34:30;;;;;;;15.80;8.35;;;;;;;10.74;65.05;95875.34;4181581;28;20053;-57
2022/10/28 03:36:32;;;;;;;19.88;8.52;;;;;;;10.81;65.12;95881.72;4174331;28;20478;-58
2022/10/28 03:38:34;;;;;;;12.40;8.02;;;;;;;11.00;64.70;95880.13;4169357;28;20053;-56
2022/10/28 03:40:35;;;;;;;12.95;7.85;;;;;;;11.15;64.22;95877.97;4175070;28;20088;-59
2022/10/28 03:42:40;;;;;;;13.50;7.70;;;;;;;11.31;63.38;95880.91;4170539;28;20084;-57
2022/10/28 03:44:42;;;;;;;18.02;8.25;;;;;;;11.40;63.29;95887.13;4171719;28;20084;-56
2022/10/28 03:46:43;;;;;;;13.05;7.95;;;;;;;11.48;62.80;95879.41;4163681;28;20269;-60
2022/10/28 03:48:45;;;;;;;18.75;8.65;;;;;;;11.54;62.62;95889.38;4180861;28;20401;-56
2022/10/28 03:50:46;;;;;;;10.98;7.38;;;;;;;11.57;62.68;95888.28;4180315;28;20053;-58
2022/10/28 03:52:48;;;;;;;14.07;8.45;;;;;;;11.61;62.51;95881.78;4180073;28;20056;-57
2022/10/28 03:54:50;;;;;;;13.40;8.32;;;;;;;11.61;62.30;95885.25;4169643;28;20049;-59
2022/10/28 03:56:51;;;;;;;15.15;7.28;;;;;;;11.67;62.23;95889.13;4180656;28;20453;-57
2022/10/28 03:58:53;;;;;;;12.63;7.50;;;;;;;11.74;61.97;95882.34;4180939;28;20087;-56
2022/10/28 04:00:55;;;;;;;11.85;8.00;;;;;;;11.79;61.74;95888.03;4169329;28;20053;-58
2022/10/28 04:02:57;;;;;;;16.33;8.02;;;;;;;11.77;61.99;95881.28;4178127;28;20055;-56
2022/10/28 04:04:58;;;;;;;13.63;8.35;;;;;;;11.74;62.09;95882.34;4181607;28;20053;-57
2022/10/28 04:07:00;;;;;;;15.73;7.53;;;;;;;11.69;61.98;95888.03;4180667;28;20045;-59
2022/10/28 04:09:02;;;;;;;12.48;7.60;;;;;;;11.13;63.16;95885.16;4181348;28;20057;-59
2022/10/28 04:11:04;;;;;;;15.05;7.57;;;;;;;10.59;65.33;95892.38;4167643;28;20125;-60
2022/10/28 04:13:06;;;;;;;18.73;9.70;;;;;;;10.23;66.66;95892.66;4180913;28;20102;-60
2022/10/28 04:15:08;;;;;;;18.35;8.73;;;;;;;10.02;67.13;95897.91;4179493;28;20072;-59
2022/10/28 04:17:09;;;;;;;19.20;9.18;;;;;;;9.91;67.83;95899.72;4170064;28;20053;-58
2022/10/28 04:19:11;;;;;;;19.95;9.30;;;;;;;9.90;68.19;95898.09;4164270;28;20077;-60
2022/10/28 04:21:13;;;;;;;20.55;9.02;;;;;;;10.06;68.41;95895.84;4168871;28;20614;-58
2022/10/28 04:23:17;;;;;;;20.05;10.57;;;;;;;10.28;67.35;95894.91;4179556;28;20049;-57
2022/10/28 04:25:19;;;;;;;36.72;9.98;;;;;;;10.54;66.55;95890.16;4163485;28;20081;-59
2022/10/28 04:27:20;;;;;;;22.30;9.95;;;;;;;10.75;65.46;95895.34;4180128;28;20087;-59
2022/10/28 04:29:22;;;;;;;21.70;10.48;;;;;;;10.91;65.21;95891.44;4180639;28;20159;-57
2022/10/28 04:31:23;;;;;;;16.95;9.40;;;;;;;10.99;64.62;95892.44;4169896;28;20052;-57
2022/10/28 04:33:25;;;;;;;19.15;8.70;;;;;;;11.09;64.14;95899.50;4177255;28;20477;-60
2022/10/28 04:35:27;;;;;;;17.70;9.55;;;;;;;11.16;63.44;95895.38;4180365;28;20106;-59
2022/10/28 04:37:28;;;;;;;13.38;8.60;;;;;;;11.21;63.37;95901.06;4180704;28;20048;-57
2022/10/28 04:39:30;;;;;;;17.33;9.68;;;;;;;11.25;62.74;95894.59;4180820;28;20083;-58
2022/10/28 04:41:32;;;;;;;17.48;8.45;;;;;;;11.29;62.89;95893.31;4180173;28;20088;-59
2022/10/28 04:43:34;;;;;;;17.15;8.73;;;;;;;11.29;62.75;95885.44;4180141;28;20053;-59
2022/10/28 04:45:35;;;;;;;14.73;8.63;;;;;;;11.30;62.71;95887.13;4167961;28;20052;-60
2022/10/28 04:47:37;;;;;;;20.42;8.93;;;;;;;11.34;62.42;95882.44;4180511;28;20691;-60
2022/10/28 04:49:39;;;;;;;13.95;8.07;;;;;;;11.34;62.56;95890.31;4180590;28;20045;-58
2022/10/28 04:51:40;;;;;;;18.25;8.98;;;;;;;11.36;62.41;95883.97;4179649;28;20553;-58
2022/10/28 04:53:42;;;;;;;17.42;8.52;;;;;;;11.34;62.60;95888.53;4175491;28;20049;-61
2022/10/28 04:55:44;;;;;;;14.27;8.85;;;;;;;11.28;62.82;95882.00;4171520;28;20053;-61
2022/10/28 04:57:56;;;;;;;17.77;8.48;;;;;;;11.31;62.63;95885.31;4180425;28;20045;-60
2022/10/28 04:59:57;;;;;;;15.73;9.27;;;;;;;11.32;62.39;95887.00;4179994;28;20049;-58
2022/10/28 05:01:59;;;;;;;14.15;8.15;;;;;;;11.36;62.62;95891.84;4179190;28;20044;-58
2022/10/28 05:04:01;;;;;;;15.02;8.85;;;;;;;11.40;62.44;95895.00;4180384;28;20087;-58
2022/10/28 05:06:02;;;;;;;16.70;9.30;;;;;;;11.44;62.41;95893.78;4179927;28;20098;-58
2022/10/28 05:08:04;;;;;;;14.98;8.38;;;;;;;11.45;62.29;95892.81;4179809;28;20132;-59
2022/10/28 05:10:06;;;;;;;15.48;8.25;;;;;;;11.51;61.99;95892.28;4180079;28;20052;-60
2022/10/28 05:12:08;;;;;;;19.23;9.18;;;;;;;11.56;61.64;95886.63;4170035;28;20084;-60
2022/10/28 05:14:09;;;;;;;16.77;8.90;;;;;;;11.64;61.63;95889.41;4176611;28;20136;-59
2022/10/28 05:16:11;;;;;;;14.32;8.90;;;;;;;11.72;61.33;95892.16;4174656;28;20128;-57
2022/10/28 05:18:13;;;;;;;17.45;9.93;;;;;;;11.70;61.00;95894.09;4170846;28;20669;-59
2022/10/28 05:20:16;;;;;;;15.95;8.82;;;;;;;11.75;61.06;95894.53;4179800;28;20685;-62
2022/10/28 05:22:18;;;;;;;14.70;8.45;;;;;;;11.79;60.71;95897.72;4179519;28;20053;-59
2022/10/28 05:24:20;;;;;;;24.25;8.35;;;;;;;11.79;60.53;95902.97;4176603;28;20053;-60
2022/10/28 05:26:21;;;;;;;19.52;8.00;;;;;;;11.69;60.46;95905.56;4173209;28;20462;-58
2022/10/28 05:28:23;;;;;;;19.60;8.18;;;;;;;11.53;61.49;95913.97;4179846;28;20080;-60
2022/10/28 05:30:26;;;;;;;17.50;8.45;;;;;;;11.53;61.51;95907.88;4178368;28;20171;-58
2022/10/28 05:32:27;;;;;;;26.05;11.90;;;;;;;11.42;61.65;95909.69;4179748;28;20146;-63
2022/10/28 05:34:29;;;;;;;30.77;16.30;;;;;;;11.09;62.22;95913.41;4178518;28;20593;-61
2022/10/28 05:36:31;;;;;;;26.63;14.35;;;;;;;10.95;63.33;95919.88;4178961;28;20076;-60
2022/10/28 05:38:32;;;;;;;23.95;11.15;;;;;;;10.92;63.23;95919.28;4179332;28;20148;-59
2022/10/28 05:40:34;;;;;;;21.77;9.60;;;;;;;10.52;63.90;95927.88;4173692;28;20060;-59
2022/10/28 05:42:40;;;;;;;21.60;9.32;;;;;;;10.24;65.24;95920.53;4168507;28;20148;-60
2022/10/28 05:44:42;;;;;;;21.85;10.05;;;;;;;10.12;65.85;95918.91;4179542;28;20052;-59
2022/10/28 05:46:44;;;;;;;22.88;10.40;;;;;;;10.00;66.32;95928.63;4178277;28;20045;-60
2022/10/28 05:48:45;;;;;;;21.10;10.75;;;;;;;10.01;66.47;95932.06;4179428;28;20045;-60
2022/10/28 05:50:47;;;;;;;19.23;10.35;;;;;;;10.32;66.65;95932.19;4179053;28;20052;-60
2022/10/28 05:52:54;;;;;;;26.85;11.38;;;;;;;10.55;65.34;95923.22;4179726;28;20144;-63
2022/10/28 05:54:55;;;;;;;25.80;11.95;;;;;;;10.58;64.91;95932.63;4175611;28;20519;-58
2022/10/28 05:56:57;;;;;;;21.35;12.18;;;;;;;10.64;65.35;95934.72;4177447;28;20136;-59
2022/10/28 05:58:59;;;;;;;21.83;11.05;;;;;;;10.57;65.02;95931.78;4179393;28;20132;-60
2022/10/28 06:01:00;;;;;;;24.92;12.55;;;;;;;10.59;64.82;95932.50;4178202;28;20140;-60
2022/10/28 06:03:08;;;;;;;29.88;13.73;;;;;;;10.37;65.23;95930.84;4166120;28;20467;-59
2022/10/28 06:05:10;;;;;;;27.42;13.40;;;;;;;10.32;65.89;95934.78;4177379;28;20041;-60
2022/10/28 06:07:12;;;;;;;24.70;12.20;;;;;;;10.41;65.65;95934.03;4170081;28;20577;-57
2022/10/28 06:09:13;;;;;;;26.38;13.88;;;;;;;10.57;65.33;95944.91;4175771;28;20056;-58
2022/10/28 06:11:15;;;;;;;23.75;13.65;;;;;;;10.73;64.96;95941.81;4177953;28;20485;-57
2022/10/28 06:13:17;;;;;;;29.08;13.55;;;;;;;10.88;64.37;95942.31;4178774;28;20123;-59
2022/10/28 06:15:19;;;;;;;25.48;13.63;;;;;;;11.09;63.63;95938.81;4177825;28;20072;-59
2022/10/28 06:17:20;;;;;;;19.13;11.75;;;;;;;11.25;63.44;95941.81;4168296;28;20140;-58
2022/10/28 06:19:22;;;;;;;22.70;11.68;;;;;;;11.31;62.83;95945.66;4165854;28;20075;-61
2022/10/28 06:21:24;;;;;;;19.90;10.95;;;;;;;11.34;62.67;95954.09;4178190;28;20067;-59
2022/10/28 06:23:27;;;;;;;24.73;11.23;;;;;;;11.44;62.74;95954.97;4179147;28;20569;-62
2022/10/28 06:25:29;;;;;;;22.08;12.05;;;;;;;11.57;62.22;95956.50;4170247;28;20076;-60
2022/10/28 06:27:30;;;;;;;20.33;10.73;;;;;;;11.48;62.08;95945.84;4174978;28;20045;-59
2022/10/28 06:29:33;;;;;;;21.05;9.95;;;;;;;11.50;62.11;95956.22;4179194;28;20500;-59
2022/10/28 06:31:38;;;;;;;22.25;10.57;;;;;;;11.59;62.23;95954.59;4177425;28;20084;-59
2022/10/28 06:33:40;;;;;;;24.60;9.95;;;;;;;11.73;61.57;95954.22;4178311;28;20053;-59
2022/10/28 06:35:41;;;;;;;16.10;9.43;;;;;;;11.71;61.26;95957.94;4178261;28;20143;-59
2022/10/28 06:37:43;;;;;;;18.65;9.45;;;;;;;11.74;61.35;95958.47;4179031;28;20076;-60
2022/10/28 06:39:50;;;;;;;16.92;10.10;;;;;;;11.92;61.43;95961.31;4178753;28;20053;-66
2022/10/28 06:41:51;;;;;;;20.10;9.60;;;;;;;12.09;60.71;95954.56;4166076;28;20100;-64
2022/10/28 06:43:53;;;;;;;17.17;9.73;;;;;;;12.23;60.00;95959.41;4177652;28;20048;-65
2022/10/28 06:45:56;;;;;;;20.70;10.45;;;;;;;12.42;59.76;95949.84;4171658;28;20140;-66
2022/10/28 06:47:59;;;;;;;29.70;11.53;;;;;;;12.60;59.05;95952.59;4172462;28;20139;-66
2022/10/28 06:50:01;;;;;;;14.93;10.50;;;;;;;12.72;58.83;95955.91;4178309;28;20057;-66
2022/10/28 06:52:03;;;;;;;22.67;11.10;;;;;;;12.87;58.31;95951.84;4178210;28;20040;-66
2022/10/28 06:54:04;;;;;;;20.55;10.57;;;;;;;12.96;58.35;95950.19;4178107;28;20139;-64
2022/10/28 06:56:07;;;;;;;22.98;10.50;;;;;;;13.00;58.31;95943.66;4167696;28;20049;-65
2022/10/28 06:58:09;;;;;;;27.77;11.80;;;;;;;12.99;58.08;95952.50;4163095;28;20076;-66
2022/10/28 07:00:11;;;;;;;18.10;10.45;;;;;;;12.82;57.94;95949.66;4177940;28;20072;-64
2022/10/28 07:02:14;;;;;;;20.02;9.98;;;;;;;12.73;58.62;95952.31;4178385;28;20457;-65
2022/10/28 07:04:16;;;;;;;18.92;10.05;;;;;;;12.79;58.70;95947.31;4178902;28;20059;-67
2022/10/28 07:06:18;;;;;;;23.83;9.48;;;;;;;12.93;58.44;95951.28;4177689;28;20259;-64
2022/10/28 07:08:19;;;;;;;15.60;8.70;;;;;;;12.93;58.20;95955.69;4177565;28;20077;-64
2022/10/28 07:10:21;;;;;;;15.45;8.25;;;;;;;12.96;58.18;95953.63;4178212;28;20048;-65
2022/10/28 07:12:23;;;;;;;16.58;8.98;;;;;;;13.07;57.97;95955.25;4178532;28;20071;-65
2022/10/28 07:14:24;;;;;;;14.75;7.95;;;;;;;13.25;57.88;95955.31;4177776;28;20049;-67
2022/10/28 07:16:26;;;;;;;13.75;8.13;;;;;;;13.37;57.33;95954.19;4177099;28;20072;-66
2022/10/28 07:18:28;;;;;;;15.70;9.02;;;;;;;13.43;56.62;95953.63;4169680;28;20526;-66
2022/10/28 07:20:31;;;;;;;15.05;8.82;;;;;;;13.26;56.97;95954.34;4161666;28;20049;-68
2022/10/28 07:22:33;;;;;;;20.13;8.90;;;;;;;13.32;56.93;95956.44;4174786;28;20111;-64
2022/10/28 07:24:35;;;;;;;16.05;9.50;;;;;;;13.49;56.69;95955.69;4168747;28;20080;-66
2022/10/28 07:26:36;;;;;;;19.35;9.90;;;;;;;13.69;56.19;95958.19;4171791;28;20138;-65
2022/10/28 07:28:38;;;;;;;20.95;9.95;;;;;;;13.81;55.62;95954.41;4164541;28;20081;-66
2022/10/28 07:30:40;;;;;;;15.93;9.15;;;;;;;13.92;55.28;95958.63;4173362;28;20049;-68
2022/10/28 07:32:41;;;;;;;20.05;10.07;;;;;;;13.96;55.09;95956.50;4169528;28;20096;-67
2022/10/28 07:34:43;;;;;;;17.77;9.85;;;;;;;14.01;54.49;95952.44;4178654;28;20683;-67
2022/10/28 07:36:48;;;;;;;19.02;10.00;;;;;;;13.83;55.26;95949.81;4177306;28;20128;-66
2022/10/28 07:38:51;;;;;;;16.27;10.05;;;;;;;13.76;55.39;95951.34;4167054;28;20167;-67
2022/10/28 07:40:52;;;;;;;23.10;9.77;;;;;;;13.77;55.73;95954.84;4173468;28;20400;-65
2022/10/28 07:42:54;;;;;;;16.65;9.20;;;;;;;13.84;55.75;95951.44;4169742;28;20080;-67
2022/10/28 07:44:57;;;;;;;18.75;10.23;;;;;;;13.83;55.22;95951.59;4168686;28;20053;-68
2022/10/28 07:46:58;;;;;;;17.05;10.35;;;;;;;13.84;55.19;95951.44;4173355;28;20045;-68
2022/10/28 07:49:00;;;;;;;17.27;10.32;;;;;;;13.91;55.26;95956.94;4166998;28;20051;-69
2022/10/28 07:51:06;;;;;;;17.20;9.73;;;;;;;14.06;55.12;95957.28;4177773;28;20061;-68
2022/10/28 07:53:08;;;;;;;18.85;10.43;;;;;;;14.27;54.56;95952.53;4178069;28;20137;-67
2022/10/28 07:55:10;;;;;;;19.65;10.35;;;;;;;14.47;54.21;95947.91;4177891;28;20056;-65
2022/10/28 07:57:12;;;;;;;16.17;9.75;;;;;;;14.61;53.66;95949.22;4176528;28;20044;-66
2022/10/28 07:59:13;;;;;;;18.48;10.48;;;;;;;14.79;53.36;95948.34;4176606;28;20442;-63
2022/10/28 08:01:18;;;;;;;22.48;11.60;;;;;;;14.98;53.07;95949.97;4176539;28;20136;-66
2022/10/28 08:03:20;;;;;;;15.88;10.80;;;;;;;15.18;52.54;95946.13;4176842;28;20478;-66
2022/10/28 08:05:21;;;;;;;18.02;10.88;;;;;;;15.36;52.07;95946.06;4177012;28;20045;-64
2022/10/28 08:07:23;;;;;;;19.40;11.20;;;;;;;15.53;51.83;95949.56;4176665;28;20446;-65
2022/10/28 08:09:25;;;;;;;22.20;12.23;;;;;;;15.64;51.34;95946.66;4177725;28;20106;-61
2022/10/28 08:11:26;;;;;;;18.33;10.68;;;;;;;15.74;51.09;95946.53;4177725;28;20076;-61
2022/10/28 08:13:28;;;;;;;22.48;12.65;;;;;;;15.61;50.59;95946.16;4178197;28;20049;-61
2022/10/28 08:15:30;;;;;;;27.25;13.75;;;;;;;15.23;51.41;95950.91;4175647;28;20496;-62
2022/10/28 08:17:31;;;;;;;22.23;12.73;;;;;;;14.92;52.16;95956.69;4175077;28;20628;-62
2022/10/28 08:19:33;;;;;;;26.38;13.70;;;;;;;15.10;52.64;95949.56;4180233;28;20049;-63
2022/10/28 08:21:35;;;;;;;27.67;14.13;;;;;;;15.24;51.87;95939.38;4180312;28;20143;-60
2022/10/28 08:23:40;;;;;;;21.30;12.15;;;;;;;15.32;51.61;95942.91;4181084;28;20432;-62
2022/10/28 08:25:51;;;;;;;18.75;10.98;;;;;;;15.51;51.12;95948.94;4166892;28;20379;-60
2022/10/28 08:27:53;;;;;;;22.40;11.30;;;;;;;15.73;50.90;95952.84;4177694;28;20071;-60
2022/10/28 08:29:55;;;;;;;26.17;14.05;;;;;;;15.89;50.61;95950.22;4178776;28;20049;-65
2022/10/28 08:31:56;;;;;;;28.85;14.80;;;;;;;15.99;50.32;95950.09;4179306;28;20045;-65
2022/10/28 08:33:58;;;;;;;18.55;11.77;;;;;;;15.69;50.11;95954.94;4177279;28;20076;-66
2022/10/28 08:36:00;;;;;;;20.23;11.98;;;;;;;15.38;50.70;95952.00;4171545;28;20049;-66
2022/10/28 08:38:03;;;;;;;25.20;11.40;;;;;;;15.11;51.74;95951.19;4180480;28;20099;-66
2022/10/28 08:40:05;;;;;;;20.25;12.10;;;;;;;15.14;51.62;95950.91;4177156;28;20049;-68
2022/10/28 08:42:29;;;;;;;18.25;10.68;;;;;;;15.42;51.18;95945.41;4179121;28;20077;-67
2022/10/28 08:45:13;;;;;;;20.25;11.20;;;;;;;15.80;50.55;95943.25;4174850;28;20049;-66
2022/10/28 08:47:22;;;;;;;;;;;;;;;15.83;49.77;95942.97;4165674;28;20072;-67
2022/10/28 08:49:24;;;;;;;21.83;12.93;;;;;;;16.01;50.00;95939.38;4178825;28;19924;-68
2022/10/28 08:51:42;;;;;;;17.35;11.63;;;;;;;16.33;49.63;95936.75;4167804;28;20128;-67
2022/10/28 08:53:48;;;;;;;19.42;11.95;;;;;;;16.60;49.09;95934.75;4162491;28;20045;-68
2022/10/28 08:55:51;;;;;;;17.23;11.85;;;;;;;16.83;48.39;95932.31;4179029;28;20569;-66
2022/10/28 08:57:56;;;;;;;18.80;10.75;;;;;;;17.03;47.50;95927.47;4175601;28;20135;-67
2022/10/28 08:59:58;;;;;;;22.20;11.60;;;;;;;16.74;47.82;95928.81;4179025;28;20061;-67
2022/10/28 09:02:09;;;;;;;23.10;11.25;;;;;;;16.52;48.45;95937.41;4177990;28;20053;-65
2022/10/28 09:04:37;;;;;;;23.95;11.85;;;;;;;16.77;48.36;95928.47;4180361;28;20128;-68
2022/10/28 09:06:39;;;;;;;19.25;10.50;;;;;;;16.99;47.92;95927.00;4174529;28;20139;-66
2022/10/28 09:08:43;;;;;;;26.05;10.70;;;;;;;17.22;47.69;95928.09;4178977;28;20118;-67
2022/10/28 09:10:47;;;;;;;19.42;11.25;;;;;;;17.43;47.19;95923.06;4169006;28;20080;-66
2022/10/28 09:12:52;;;;;;;22.17;11.20;;;;;;;17.57;46.74;95922.34;4179463;28;20080;-66
2022/10/28 09:15:16;;;;;;;20.73;9.85;;;;;;;17.74;46.64;95915.09;4177414;28;20079;-68
2022/10/28 09:17:20;;;;;;;23.00;10.75;;;;;;;17.95;46.08;95917.19;4169326;28;20133;-69
2022/10/28 09:19:32;;;;;;;19.40;10.68;;;;;;;18.15;45.60;95919.38;4178470;28;20041;-67
2022/10/28 09:21:42;;;;;;;20.98;10.93;;;;;;;18.30;44.97;95916.78;4172548;28;20152;-67
2022/10/28 09:23:58;;;;;;;14.95;9.77;;;;;;;18.22;45.12;95915.03;4168112;28;20115;-67
2022/10/28 09:26:30;;;;;;;20.55;11.25;;;;;;;18.23;44.92;95906.06;4168274;28;20112;-69
2022/10/28 09:28:57;;;;;;;21.90;11.35;;;;;;;18.37;44.83;95902.66;4167627;28;20703;-64
2022/10/28 09:31:08;;;;;;;21.95;11.05;;;;;;;18.50;44.61;95895.91;4176003;28;20044;-67
2022/10/28 09:33:28;;;;;;;21.25;11.27;;;;;;;18.63;44.31;95896.13;4178403;28;20053;-67
2022/10/28 09:35:33;;;;;;;21.85;11.43;;;;;;;18.33;44.15;95887.28;4163500;28;20041;-68
2022/10/28 09:37:38;;;;;;;20.52;10.18;;;;;;;17.67;45.75;95885.00;4171055;28;20076;-67
2022/10/28 09:39:46;;;;;;;17.05;10.65;;;;;;;17.58;46.42;95889.53;4168589;28;20128;-63
2022/10/28 09:41:49;;;;;;;18.13;9.25;;;;;;;17.23;46.80;95887.34;4165516;28;20486;-65